createdAt,value
2023-04-28T00:02:36.068Z,99732.59
2023-04-28T00:07:58.385Z,99727.53
2023-04-28T00:13:21.484Z,99719.28
2023-04-28T00:18:44.310Z,99713.97
2023-04-28T00:24:06.826Z,99730.59
2023-04-28T00:29:30.142Z,99741.59
2023-04-28T00:34:52.443Z,99740.28
2023-04-28T00:40:15.170Z,99743.47
2023-04-28T00:45:38.510Z,99730.66
2023-04-28T00:51:00.370Z,99736.53
2023-04-28T00:56:22.843Z,99720.50
2023-04-28T01:01:45.359Z,99721.38
2023-04-28T01:07:07.767Z,99737.41
2023-04-28T01:12:31.253Z,99733.69
2023-04-28T01:17:54.479Z,99734.50
2023-04-28T01:23:18.282Z,99718.94
2023-04-28T01:28:40.606Z,99746.03
2023-04-28T01:34:03.279Z,99730.81
2023-04-28T01:39:25.948Z,99736.22
2023-04-28T01:44:48.309Z,99736.25
2023-04-28T01:50:12.131Z,99728.53
2023-04-28T01:55:34.568Z,99725.63
2023-04-28T02:00:57.826Z,99727.78
2023-04-28T02:06:20.871Z,99735.59
2023-04-28T02:11:43.206Z,99746.53
2023-04-28T02:17:06.305Z,99729.44
2023-04-28T02:22:29.824Z,99737.97
2023-04-28T02:27:52.333Z,99731.00
2023-04-28T02:33:15.570Z,99743.78
2023-04-28T02:38:38.220Z,99746.16
2023-04-28T02:44:01.646Z,99755.28
2023-04-28T02:49:24.042Z,99765.63
2023-04-28T03:00:31.307Z,99758.69
2023-04-28T03:05:55.123Z,99755.41
2023-04-28T03:11:18.275Z,99750.97
2023-04-28T03:16:43.612Z,99743.09
2023-04-28T03:22:06.502Z,99744.56
2023-04-28T03:27:30.482Z,99768.75
2023-04-28T03:32:54.667Z,99773.88
2023-04-28T03:38:18.441Z,99780.88
2023-04-28T03:43:42.758Z,99783.22
2023-04-28T03:49:26.053Z,99775.28
2023-04-28T03:54:48.781Z,99773.59
2023-04-28T04:00:12.536Z,99783.00
2023-04-28T04:05:38.342Z,99777.59
2023-04-28T04:11:01.966Z,99780.50
2023-04-28T04:16:26.100Z,99778.47
2023-04-28T04:21:51.572Z,99759.50
2023-04-28T04:27:15.050Z,99772.94
2023-04-28T04:32:38.219Z,99782.06
2023-04-28T04:38:02.078Z,99789.56
2023-04-28T04:43:26.175Z,99784.94
2023-04-28T04:48:48.676Z,99797.09
2023-04-28T04:54:12.002Z,99785.59
2023-04-28T04:59:37.795Z,99763.63
2023-04-28T05:05:19.899Z,99768.41
2023-04-28T05:10:56.530Z,99790.31
2023-04-28T05:16:21.183Z,99770.75
2023-04-28T05:22:09.371Z,99773.84
2023-04-28T05:27:33.675Z,99773.50
2023-04-28T05:32:56.898Z,99759.81
2023-04-28T05:38:21.565Z,99747.50
2023-04-28T05:43:48.383Z,99752.00
2023-04-28T05:49:12.317Z,99755.41
2023-04-28T05:54:36.262Z,99751.56
2023-04-28T05:59:59.891Z,99769.38
2023-04-28T06:05:23.148Z,99765.44
2023-04-28T06:10:48.405Z,99768.13
2023-04-28T06:16:11.928Z,99771.84
2023-04-28T06:21:35.260Z,99761.25
2023-04-28T06:26:58.746Z,99766.03
2023-04-28T06:32:22.802Z,99766.41
2023-04-28T06:37:45.858Z,99765.66
2023-04-28T06:43:10.007Z,99782.94
2023-04-28T06:48:49.221Z,99772.63
2023-04-28T06:54:12.993Z,99758.88
2023-04-28T06:59:39.097Z,99757.00
2023-04-28T07:05:02.983Z,99768.34
2023-04-28T07:10:26.133Z,99770.56
2023-04-28T07:15:50.723Z,99756.75
2023-04-28T07:21:14.169Z,99766.44
2023-04-28T07:26:36.534Z,99778.75
2023-04-28T07:31:58.535Z,99765.75
2023-04-28T07:37:20.732Z,99763.50
2023-04-28T07:42:42.594Z,99764.66
2023-04-28T07:48:04.664Z,99774.22
2023-04-28T07:53:27.128Z,99780.84
2023-04-28T07:58:53.483Z,99758.75
2023-04-28T08:04:15.929Z,99777.34
2023-04-28T08:09:41.033Z,99768.53
2023-04-28T08:15:04.519Z,99770.16
2023-04-28T08:20:27.107Z,99760.38
2023-04-28T08:25:50.889Z,99753.94
2023-04-28T08:31:13.565Z,99742.28
2023-04-28T08:36:35.948Z,99738.09
2023-04-28T08:41:58.512Z,99726.75
2023-04-28T08:47:23.093Z,99726.63
2023-04-28T08:52:45.459Z,99725.84
2023-04-28T08:58:09.265Z,99723.50
2023-04-28T09:03:33.221Z,99737.47
2023-04-28T09:08:55.225Z,99723.53
2023-04-28T09:14:17.374Z,99717.66
2023-04-28T09:19:43.487Z,99731.44
2023-04-28T09:25:12.852Z,99739.22
2023-04-28T09:30:41.576Z,99732.75
2023-04-28T09:36:04.127Z,99728.81
2023-04-28T09:41:54.442Z,99732.56
2023-04-28T09:47:23.042Z,99726.47
2023-04-28T09:52:49.534Z,99714.94
2023-04-28T09:58:13.821Z,99712.22
2023-04-28T10:03:36.527Z,99690.56
2023-04-28T10:09:00.915Z,99704.31
2023-04-28T10:14:23.908Z,99697.47
2023-04-28T10:19:47.830Z,99699.28
2023-04-28T10:25:25.902Z,99698.78
2023-04-28T10:31:12.471Z,99691.28
2023-04-28T10:36:55.663Z,99687.41
2023-04-28T10:42:57.742Z,99687.03
2023-04-28T10:48:21.403Z,99704.56
2023-04-28T10:53:44.218Z,99703.13
2023-04-28T10:59:27.885Z,99693.47
2023-04-28T11:05:12.838Z,99693.81
2023-04-28T11:11:14.987Z,99689.00
2023-04-28T11:16:52.943Z,99673.66
2023-04-28T11:22:21.088Z,99663.06
2023-04-28T11:27:43.469Z,99650.59
2023-04-28T11:33:05.741Z,99652.31
2023-04-28T11:38:27.636Z,99672.44
2023-04-28T11:43:49.782Z,99668.56
2023-04-28T11:49:13.130Z,99674.59
2023-04-28T11:54:36.053Z,99670.00
2023-04-28T12:00:22.580Z,99658.78
2023-04-28T12:05:48.738Z,99654.31
2023-04-28T12:11:13.328Z,99640.88
2023-04-28T12:16:44.727Z,99629.06
2023-04-28T12:22:08.068Z,99616.53
2023-04-28T12:27:29.861Z,99621.13
2023-04-28T12:32:52.712Z,99619.00
2023-04-28T12:38:18.037Z,99626.69
2023-04-28T12:43:46.438Z,99618.34
2023-04-28T12:49:11.772Z,99610.63
2023-04-28T12:54:39.704Z,99605.94
2023-04-28T13:00:02.534Z,99607.44
2023-04-28T13:05:29.421Z,99578.88
2023-04-28T13:10:53.513Z,99574.56
2023-04-28T13:16:15.644Z,99580.75
2023-04-28T13:21:39.753Z,99564.13
2023-04-28T13:27:10.360Z,99581.03
2023-04-28T13:32:32.688Z,99580.56
2023-04-28T13:38:02.157Z,99569.66
2023-04-28T13:43:25.163Z,99597.78
2023-04-28T13:48:48.635Z,99583.56
2023-04-28T13:54:12.039Z,99578.44
2023-04-28T13:59:36.064Z,99581.41
2023-04-28T14:05:00.013Z,99562.00
2023-04-28T14:10:26.085Z,99558.94
2023-04-28T14:15:58.491Z,99573.16
2023-04-28T14:21:25.836Z,99553.75
2023-04-28T14:26:53.603Z,99565.56
2023-04-28T14:32:21.806Z,99567.88
2023-04-28T14:37:49.086Z,99546.47
2023-04-28T14:43:14.485Z,99576.94
2023-04-28T14:48:39.200Z,99575.31
2023-04-28T14:54:02.202Z,99579.84
2023-04-28T14:59:25.357Z,99561.41
2023-04-28T15:04:52.589Z,99596.66
2023-04-28T15:10:15.808Z,99574.34
2023-04-28T15:15:38.286Z,99575.13
2023-04-28T15:21:02.166Z,99581.59
2023-04-28T15:26:24.560Z,99609.75
2023-04-28T15:31:51.620Z,99598.72
2023-04-28T15:37:37.745Z,99622.53
2023-04-28T15:43:00.477Z,99620.72
2023-04-28T15:48:23.978Z,99596.75
2023-04-28T15:53:46.448Z,99614.91
2023-04-28T15:59:09.228Z,99617.06
2023-04-28T16:04:32.269Z,99634.66
2023-04-28T16:09:55.948Z,99648.06
2023-04-28T16:15:18.935Z,99643.75
2023-04-28T16:20:41.769Z,99659.72
2023-04-28T16:26:04.070Z,99661.44
2023-04-28T16:31:26.859Z,99663.69
2023-04-28T16:36:49.792Z,99661.66
2023-04-28T16:42:12.322Z,99661.53
2023-04-28T16:47:35.904Z,99652.13
2023-04-28T16:52:58.771Z,99660.53
2023-04-28T16:58:21.063Z,99663.53
2023-04-28T17:03:44.012Z,99635.84
2023-04-28T17:30:43.783Z,99649.16
2023-04-28T17:37:03.103Z,99666.59
2023-04-28T17:42:41.691Z,99646.38
2023-04-28T17:48:21.943Z,99631.88
2023-04-28T17:53:55.356Z,99627.69
2023-04-28T17:59:30.284Z,99643.06
2023-04-28T18:05:17.207Z,99647.19
2023-04-28T18:10:52.186Z,99657.81
2023-04-28T18:16:32.692Z,99712.53
2023-04-28T18:22:26.864Z,99693.59
2023-04-28T18:28:21.539Z,99698.50
2023-04-28T18:34:15.496Z,99703.81
2023-04-28T18:39:55.376Z,99708.47
2023-04-28T18:51:04.217Z,99676.03
2023-04-28T18:56:26.761Z,99657.91
2023-04-28T19:01:58.545Z,99660.78
2023-04-28T19:07:27.786Z,99653.78
2023-04-28T19:12:50.002Z,99659.19
2023-04-28T19:18:13.042Z,99653.78
2023-04-28T19:23:35.325Z,99635.66
2023-04-28T19:29:01.638Z,99663.38
2023-04-28T19:34:23.800Z,99647.75
2023-04-28T19:39:47.325Z,99631.38
2023-04-28T19:45:10.559Z,99618.47
2023-04-28T19:50:32.753Z,99615.75
2023-04-28T19:55:55.168Z,99606.84
2023-04-28T20:01:17.206Z,99611.31
2023-04-28T20:06:39.344Z,99597.31
2023-04-28T20:12:04.876Z,99591.28
2023-04-28T20:17:27.309Z,99593.00
2023-04-28T20:22:52.748Z,99605.13
2023-04-28T20:28:14.859Z,99595.56
2023-04-28T20:33:37.168Z,99605.75
2023-04-28T20:39:02.223Z,99593.97
2023-04-28T20:44:24.594Z,99582.16
2023-04-28T20:49:48.068Z,99565.63
2023-04-28T20:55:12.165Z,99549.09
2023-04-28T21:00:36.545Z,99565.97
2023-04-28T21:06:01.218Z,99572.81
2023-04-28T21:11:23.092Z,99564.03
2023-04-28T21:16:45.105Z,99555.63
2023-04-28T21:22:07.525Z,99573.75
2023-04-28T21:27:29.842Z,99545.41
2023-04-28T21:32:51.827Z,99562.28
2023-04-28T21:39:05.650Z,99565.31
2023-04-28T21:44:28.087Z,99564.22
2023-04-28T21:49:50.576Z,99558.94
2023-04-28T21:55:13.113Z,99558.78
2023-04-28T22:00:40.072Z,99558.31
2023-04-28T22:06:02.880Z,99571.53
2023-04-28T22:11:25.924Z,99572.50
2023-04-28T22:16:47.993Z,99580.59
2023-04-28T22:22:09.876Z,99583.00
2023-04-28T22:27:31.982Z,99575.19
2023-04-28T22:32:54.003Z,99562.47
2023-04-28T22:38:16.432Z,99536.69
2023-04-28T22:43:38.155Z,99540.81
2023-04-28T22:49:00.387Z,99542.25
2023-04-28T22:54:22.573Z,99522.50
2023-04-28T22:59:44.693Z,99528.69
2023-04-28T23:05:09.825Z,99531.88
2023-04-28T23:10:31.588Z,99518.06
2023-04-28T23:15:53.849Z,99468.38
2023-04-28T23:21:15.289Z,99511.38
2023-04-28T23:26:37.936Z,99525.84
2023-04-28T23:31:59.954Z,99522.69
2023-04-28T23:37:22.214Z,99506.91
2023-04-28T23:42:44.000Z,99483.84
2023-04-28T23:48:06.274Z,99483.03
2023-04-28T23:53:28.507Z,99490.84
2023-04-28T23:58:50.591Z,99494.66
